Date,TemperatureHighF,TemperatureAvgF,TemperatureLowF,DewpointHighF,DewpointAvgF,DewpointLowF,HumidityHigh,HumidityAvg,HumidityLow,PressureMaxIn,PressureMinIn,WindSpeedMaxMPH,WindSpeedAvgMPH,GustSpeedMaxMPH,PrecipitationSumIn
2013-1-1,42,33,27,31,29,24,93,87,64,0.00,40.00,6,3,0,0.00
2013-1-2,45,31,22,31,25,20,91,82,55,0.00,40.00,6,2,0,0.00
2013-1-3,43,30,22,34,26,20,92,86,69,0.00,40.00,5,3,0,0.00
2013-1-4,44,30,23,33,26,21,94,86,57,0.00,40.00,5,2,0,0.00
2013-1-5,40,33,28,35,30,26,94,91,81,0.00,40.00,5,2,0,0.00
2013-1-6,42,36,33,38,35,32,95,93,86,0.00,40.00,7,2,0,0.00
2013-1-7,42,38,36,40,37,34,95,94,91,0.00,40.00,3,1,0,0.00
2013-1-8,44,42,40,41,40,38,95,93,87,0.00,40.00,5,3,0,0.00
2013-1-9,44,39,31,42,36,28,95,88,69,0.00,40.00,7,4,0,0.00
2013-1-10,37,34,31,33,30,28,94,88,72,0.00,40.00,8,3,0,0.00
2013-1-11,39,34,26,32,28,23,90,81,67,0.00,40.00,9,5,0,0.00
2013-1-12,31,27,24,24,23,20,91,83,71,0.00,40.00,5,2,0,0.00
2013-1-13,30,26,21,22,20,18,87,78,73,0.00,40.00,5,3,0,0.00
2013-1-14,36,24,18,22,18,15,89,81,51,0.00,40.00,3,2,0,0.00
2013-1-15,41,29,20,29,24,17,91,82,59,0.00,40.00,5,2,0,0.00
2013-1-16,30,27,22,28,25,20,93,92,90,0.00,40.00,3,2,0,0.00
2013-1-17,33,28,25,31,26,23,94,92,91,0.00,40.00,3,2,0,0.00
2013-1-18,38,28,23,37,27,21,95,92,90,0.00,40.00,3,2,0,0.00
2013-1-19,43,28,21,36,25,19,95,87,63,0.00,40.00,5,2,0,0.00
2013-1-20,25,22,19,22,19,16,90,90,89,0.00,40.00,3,2,0,0.00
2013-1-21,47,36,27,30,27,24,87,72,46,0.00,40.00,6,3,0,0.00
2013-1-22,42,33,22,30,27,20,90,80,62,0.00,40.00,3,2,0,0.00
2013-1-23,55,42,31,47,36,28,95,83,42,0.00,40.00,15,5,0,0.00
2013-1-24,50,44,42,48,43,40,97,94,85,0.00,40.00,3,2,0,0.00
2013-1-25,48,44,42,46,43,41,96,95,92,0.00,40.00,6,2,0,0.00
2013-1-26,45,40,34,44,36,31,96,86,70,0.00,40.00,7,4,0,0.00
2013-1-27,43,38,32,36,33,30,94,83,67,0.00,40.00,6,3,0,0.00
2013-1-28,43,38,33,38,35,31,94,89,80,0.00,40.00,9,3,0,0.00
2013-1-29,43,40,38,39,37,36,95,92,86,0.00,40.00,5,3,0,0.00
2013-1-31,40,39,38,36,35,34,88,86,85,0.00,40.00,3,2,0,0.00
2013-2-1,43,37,30,37,34,28,92,87,78,0.00,40.00,5,3,0,0.00
2013-2-2,40,33,29,39,32,27,96,95,93,0.00,40.00,5,2,0,0.00
2013-2-3,37,33,31,36,32,30,96,96,95,0.00,40.00,3,2,0,0.00
2013-2-4,42,35,32,41,34,31,96,95,91,0.00,40.00,3,2,0,0.00
2013-2-5,45,38,31,43,36,30,97,94,87,0.00,40.00,6,2,0,0.00
2013-2-6,50,40,32,41,35,30,96,84,62,0.00,40.00,7,3,0,0.00
2013-2-7,44,39,34,36,34,32,94,84,69,0.00,40.00,7,4,0,0.00
2013-2-8,44,36,30,34,31,25,94,81,52,0.00,40.00,12,4,0,0.00
2013-2-9,46,35,28,33,28,25,89,77,55,0.00,40.00,5,2,0,0.00
2013-2-10,49,37,26,35,30,24,92,79,47,0.00,40.00,6,3,0,0.00
2013-2-11,42,33,26,34,30,24,92,87,74,0.00,40.00,5,3,0,0.00
2013-2-12,51,39,31,38,34,28,92,83,61,0.00,40.00,6,3,0,0.00
2013-2-13,55,41,31,41,35,29,94,80,57,0.00,40.00,5,3,0,0.00
2013-2-14,56,42,35,41,36,33,92,82,53,0.00,40.00,6,3,0,0.00
2013-2-15,63,43,28,43,35,26,94,78,42,0.00,40.00,6,3,0,0.00
2013-2-16,59,41,28,39,33,26,92,76,45,0.00,40.00,15,5,0,0.00
2013-2-17,50,37,27,33,29,25,91,75,37,0.00,40.00,5,3,0,0.00
2013-2-18,44,34,26,33,29,23,90,80,65,0.00,40.00,5,3,0,0.00
2013-2-19,43,36,31,34,31,29,93,81,60,0.00,40.00,6,3,0,0.00
2013-2-20,47,40,34,35,32,29,91,73,52,0.00,40.00,7,3,0,0.00
2013-2-21,44,39,33,35,33,31,94,80,60,0.00,40.00,6,3,0,0.00
2013-2-22,47,39,33,40,35,30,91,84,65,0.00,40.00,9,4,0,0.00
2013-2-23,44,38,30,35,32,27,91,79,63,0.00,40.00,9,4,0,0.00
2013-2-24,48,35,25,34,29,23,93,81,55,0.00,40.00,6,3,0,0.00
2013-2-25,48,40,36,37,33,28,93,76,46,0.00,40.00,12,5,0,0.00
2013-2-26,49,34,27,33,28,24,90,78,49,0.00,40.00,6,3,0,0.00
2013-2-27,53,40,27,42,33,24,91,77,48,0.00,40.00,5,3,0,0.00
2013-2-28,51,47,43,48,44,41,96,90,78,0.00,40.00,3,2,0,0.00
2013-3-1,60,50,43,48,46,40,97,86,60,0.00,40.00,7,3,0,0.00
2013-3-2,52,44,37,46,41,36,95,89,76,0.00,40.00,5,2,0,0.00
2013-3-3,55,47,35,44,39,32,96,76,42,0.00,40.00,9,4,0,0.00
2013-3-4,59,40,27,41,33,25,92,80,45,0.00,40.00,5,3,0,0.00
2013-3-5,50,42,33,40,36,30,92,81,62,0.00,40.00,9,4,0,0.00
2013-3-6,48,42,38,40,36,30,92,80,56,0.00,40.00,13,5,0,0.00
2013-3-7,51,38,27,36,31,25,94,77,48,0.00,40.00,6,3,0,0.00
2013-3-8,53,38,24,35,28,18,92,71,25,0.00,40.00,7,4,0,0.00
2013-3-9,58,39,25,34,27,22,91,67,25,0.00,40.00,8,3,0,0.00
2013-3-10,61,42,26,39,31,23,88,68,39,0.00,40.00,5,3,0,0.00
2013-3-11,64,45,33,43,35,29,87,70,41,0.00,40.00,5,4,0,0.00
2013-3-12,64,48,33,45,39,31,92,74,44,0.00,40.00,6,4,0,0.00
2013-3-13,64,47,38,46,40,36,93,78,50,0.00,40.00,6,3,0,0.00
2013-3-14,63,49,38,46,41,36,93,75,45,0.00,40.00,7,3,0,0.00
2013-3-15,65,50,37,42,38,34,90,68,38,0.00,40.00,6,3,0,0.00
2013-3-16,55,47,39,43,40,37,93,77,55,0.00,40.00,9,4,0,0.00
2013-3-17,51,44,36,40,34,30,87,70,47,0.00,40.00,8,4,0,0.00
2013-3-18,57,40,26,36,30,23,90,71,37,0.00,40.00,6,3,0,0.00
2013-3-19,56,48,40,47,41,35,91,76,56,0.00,40.00,5,2,0,0.00
2013-3-20,56,49,40,47,39,31,82,69,59,0.00,40.00,15,8,0,0.00
2013-3-21,47,41,36,34,30,27,87,69,46,0.00,40.00,7,4,0,0.00
2013-3-22,46,36,27,29,26,23,86,67,42,0.00,40.00,9,4,0,0.00
2013-3-23,54,35,23,28,24,19,87,68,29,0.00,40.00,6,4,0,0.00
2013-3-24,59,42,29,37,30,24,84,64,40,0.00,40.00,5,3,0,0.00
2013-3-25,60,46,34,42,37,31,90,71,46,0.00,40.00,9,4,0,0.00
2013-3-26,57,49,43,43,42,41,94,78,56,0.00,40.00,6,3,0,0.00
2013-3-27,59,50,40,48,44,38,92,79,64,0.00,40.00,8,4,0,0.00
2013-3-28,59,53,47,48,46,45,93,80,62,0.00,40.00,8,3,0,0.00
2013-3-29,70,54,43,48,44,40,94,74,33,0.00,40.00,6,3,0,0.00
2013-3-30,74,55,38,51,43,36,93,69,35,0.00,40.00,9,4,0,0.00
2013-3-31,59,54,51,52,49,47,89,82,71,0.00,40.00,9,5,0,0.00
2013-4-1,57,52,48,49,47,45,97,86,67,0.00,40.00,6,3,0,0.00
2013-4-2,64,55,49,50,47,46,93,76,52,0.00,40.00,7,3,0,0.00
2013-4-3,65,52,40,54,46,38,95,81,60,0.00,40.00,3,2,0,0.00
2013-4-4,63,56,50,52,47,42,93,73,53,0.00,40.00,18,8,0,0.00
2013-4-5,56,50,45,49,46,43,95,88,74,0.00,40.00,10,4,0,0.00
2013-4-6,56,50,46,48,46,44,96,86,65,0.00,40.00,10,4,0,0.00
2013-4-7,55,46,39,44,40,35,95,81,54,0.00,40.00,18,7,0,0.00
2013-4-8,51,43,35,37,35,31,87,73,55,0.00,40.00,10,5,0,0.00
2013-4-9,63,47,35,42,35,30,93,68,32,0.00,40.00,5,3,0,0.00
2013-4-10,59,48,38,50,43,36,93,81,66,0.00,40.00,9,4,0,0.00
2013-4-11,60,48,34,42,38,32,96,72,46,0.00,40.00,9,4,0,0.00
2013-4-12,66,49,33,46,37,31,93,68,34,0.00,40.00,10,5,0,0.00
2013-4-13,54,50,44,39,35,31,79,56,44,0.00,40.00,12,8,0,0.00
2013-4-15,47,43,38,36,33,30,82,67,60,0.00,40.00,12,7,0,0.00
2013-4-16,53,42,34,35,33,30,90,71,48,0.00,40.00,9,5,0,0.00
2013-4-17,58,44,30,36,32,27,90,64,35,0.00,40.00,9,4,0,0.00
2013-4-18,65,49,33,43,36,30,87,64,44,0.00,40.00,5,3,0,0.00
2013-4-19,64,52,42,48,42,37,87,70,44,0.00,40.00,8,4,0,0.00
2013-4-20,66,50,33,43,37,31,91,66,30,0.00,40.00,13,4,0,0.00
2013-4-21,67,51,34,45,39,31,88,66,37,0.00,40.00,14,4,0,0.00
2013-4-22,70,54,38,46,39,25,93,63,18,0.00,40.00,13,5,0,0.00
2013-4-23,72,55,37,35,28,20,66,40,15,0.00,40.00,12,5,0,0.00
2013-4-24,76,56,34,33,27,22,74,40,13,0.00,40.00,10,5,0,0.00
2013-4-25,76,57,35,42,36,29,79,48,25,0.00,40.00,8,4,0,0.00
2013-4-26,81,62,42,46,40,33,81,50,18,0.00,40.00,12,5,0,0.00
2013-4-27,80,62,41,43,39,34,85,49,20,0.00,40.00,10,5,0,0.00
2013-4-28,73,56,40,43,38,34,80,54,30,0.00,40.00,8,5,0,0.00
2013-4-29,66,56,47,47,42,34,80,61,37,0.00,40.00,15,6,0,0.00
2013-4-30,62,50,35,34,30,24,86,50,24,0.00,40.00,12,6,0,0.00
2013-5-1,76,52,30,34,26,10,83,47,8,0.00,40.00,13,5,0,0.00
2013-5-2,81,61,39,36,28,22,62,36,11,0.00,40.00,8,4,0,0.00
2013-5-3,82,60,39,45,38,33,78,49,18,0.00,40.00,8,4,0,0.00
2013-5-4,82,64,40,42,34,20,85,43,10,0.00,40.00,16,7,0,0.00
2013-5-5,81,61,44,47,40,36,74,49,23,0.00,40.00,15,6,0,0.00
2013-5-6,72,56,46,56,48,42,92,77,46,0.00,40.00,14,4,0,0.00
2013-5-7,68,60,53,54,53,51,96,78,60,0.00,40.00,6,3,0,0.00
2013-5-8,74,61,51,54,52,49,94,74,46,0.00,40.00,6,4,0,0.00
2013-5-9,81,66,47,54,50,46,97,64,31,0.00,40.00,5,4,0,0.00
2013-5-10,85,64,53,56,41,-100,84,61,35,0.00,40.00,6,3,0,0.00
2013-5-11,85,66,56,61,44,-100,84,57,33,0.00,40.00,6,4,0,0.00
2013-5-12,80,64,52,51,45,38,79,52,26,0.00,40.00,9,4,0,0.00
2013-5-13,72,61,48,52,44,39,75,56,31,0.00,40.00,12,5,0,0.00
2013-5-14,73,58,43,46,42,36,87,60,27,0.00,40.00,10,4,0,0.00
2013-5-15,67,57,47,48,44,39,79,64,51,0.00,40.00,9,4,0,0.00
2013-5-16,62,52,51,51,32,-100,94,74,53,0.00,40.00,8,4,0,0.00
2013-5-17,62,56,50,44,41,38,75,60,41,0.00,40.00,10,5,0,0.00
2013-5-18,64,55,48,48,44,41,79,69,51,0.00,40.00,7,4,0,0.00
2013-5-19,69,56,43,46,42,39,85,63,40,0.00,40.00,8,4,0,0.00
2013-5-20,79,61,42,46,41,33,88,53,19,0.00,40.00,9,4,0,0.00
2013-5-21,57,50,40,44,37,33,85,64,44,0.00,40.00,20,7,0,0.00
2013-5-22,52,45,36,42,37,33,91,75,52,0.00,40.00,8,5,0,0.00
2013-5-23,60,50,42,41,39,35,94,69,41,0.00,40.00,9,4,0,0.00
2013-5-24,59,52,46,41,38,36,73,61,47,0.00,40.00,10,5,0,0.00
2013-5-25,69,54,35,43,38,33,91,60,33,0.00,40.00,8,5,0,0.00
2013-5-26,66,57,50,51,46,40,95,69,43,0.00,40.00,9,4,0,0.00
2013-5-27,60,55,49,56,50,43,95,86,69,0.00,40.00,9,4,0,0.00
2013-5-28,70,59,51,51,48,43,95,71,40,0.00,40.00,8,4,0,0.00
2013-5-29,67,58,50,50,44,38,92,63,38,0.00,40.00,12,6,0,0.00
2013-5-30,67,56,45,42,40,36,82,57,32,0.00,40.00,18,5,0,0.00
2013-5-31,76,56,38,44,37,20,89,58,12,0.00,40.00,10,4,0,0.00
2013-6-1,80,63,43,47,42,30,85,53,19,0.00,40.00,14,5,0,0.00
2013-6-2,76,63,47,51,48,43,88,61,36,0.00,40.00,9,4,0,0.00
2013-6-3,83,65,45,49,46,41,89,56,29,0.00,40.00,13,5,0,0.00
2013-6-4,88,68,48,51,46,41,81,50,22,0.00,40.00,13,4,0,0.00
2013-6-5,89,72,49,52,48,42,76,45,26,0.00,40.00,7,4,0,0.00
2013-6-6,89,72,52,56,52,48,85,53,30,0.00,40.00,14,5,0,0.00
2013-6-7,87,72,56,57,54,51,85,58,31,0.00,40.00,12,5,0,0.00
2013-6-8,90,74,53,55,49,42,83,48,24,0.00,40.00,8,4,0,0.00
2013-6-9,87,70,52,51,45,34,74,44,23,0.00,40.00,15,5,0,0.00
2013-6-10,79,64,46,48,42,38,74,48,26,0.00,40.00,15,6,0,0.00
2013-6-11,66,58,51,46,43,39,75,59,41,0.00,40.00,14,6,0,0.00
2013-6-12,68,55,39,44,40,35,87,60,35,0.00,40.00,16,6,0,0.00
2013-6-13,68,57,45,45,42,38,79,59,39,0.00,40.00,14,6,0,0.00
2013-6-14,78,60,40,45,40,34,88,55,20,0.00,40.00,7,4,0,0.00
2013-6-15,81,64,44,51,44,39,83,53,26,0.00,40.00,14,6,0,0.00
2013-6-16,79,65,50,49,46,44,81,55,33,0.00,40.00,10,5,0,0.00
2013-6-17,75,61,47,50,46,42,84,61,38,0.00,40.00,9,5,0,0.00
2013-6-18,67,59,55,48,44,40,72,58,38,0.00,40.00,9,6,0,0.00
2013-6-19,63,55,50,52,46,42,82,71,51,0.00,40.00,10,5,0,0.00
2013-6-20,55,50,46,47,44,43,88,82,73,0.00,40.00,6,3,0,0.00
2013-6-22,80,76,70,47,42,37,39,31,24,0.00,40.00,9,6,0,0.00
2013-6-23,75,67,60,55,50,43,68,56,41,0.00,40.00,10,4,0,0.00
2013-6-24,63,58,52,54,51,49,90,77,69,0.00,40.00,9,4,0,0.00
2013-6-25,71,60,55,57,54,49,97,81,45,0.00,40.00,18,6,0,0.00
2013-6-26,70,62,56,60,56,52,95,83,67,0.00,40.00,6,3,0,0.00
2013-6-27,85,70,56,62,58,54,94,70,42,0.00,40.00,6,4,0,0.00
2013-6-28,93,78,59,61,58,52,94,57,27,0.00,40.00,8,4,0,0.00
2013-6-29,91,76,62,60,57,50,85,56,25,0.00,40.00,7,4,0,0.00
2013-6-30,96,78,59,63,58,54,85,55,25,0.00,40.00,12,5,0,0.00
2013-7-1,95,79,64,64,61,56,80,56,27,0.00,40.00,10,5,0,0.00
2013-7-2,96,81,65,66,63,61,88,59,35,0.00,40.00,12,5,0,0.00
2013-7-3,94,81,68,67,59,49,80,51,29,0.00,40.00,14,6,0,0.00
2013-7-4,86,72,58,54,48,39,78,46,22,0.00,40.00,14,6,0,0.00
2013-7-5,81,69,53,53,49,46,82,51,32,0.00,40.00,9,5,0,0.00
2013-7-6,81,62,50,49,47,45,82,61,31,0.00,40.00,10,4,0,0.00
2013-7-7,87,70,53,54,51,48,84,54,29,0.00,40.00,10,5,0,0.00
2013-7-8,91,71,55,54,52,50,85,56,26,0.00,40.00,12,4,0,0.00
2013-7-9,95,78,56,55,52,47,79,46,20,0.00,40.00,12,5,0,0.00
2013-7-10,93,78,59,56,54,48,83,49,22,0.00,40.00,14,6,0,0.00
2013-7-11,86,73,60,56,51,44,79,51,24,0.00,40.00,16,6,0,0.00
2013-7-12,83,69,52,48,45,36,81,48,19,0.00,40.00,15,7,0,0.00
2013-7-13,86,68,51,49,47,45,80,53,27,0.00,40.00,10,4,0,0.00
2013-7-14,93,72,53,51,48,45,83,51,19,0.00,40.00,15,5,0,0.00
2013-7-15,94,75,55,52,48,43,81,46,17,0.00,40.00,15,5,0,0.00
2013-7-16,90,70,62,53,48,35,68,48,22,0.00,40.00,8,4,0,0.00
2013-7-17,91,70,50,52,43,36,73,44,16,0.00,40.00,15,5,0,0.00
2013-7-18,93,75,57,53,49,44,82,47,23,0.00,40.00,13,5,0,0.00
2013-7-19,93,75,58,54,50,44,74,46,24,0.00,40.00,13,5,0,0.00
2013-7-20,94,75,58,54,51,46,77,47,23,0.00,40.00,12,5,0,0.00
2013-7-21,96,74,54,55,49,37,83,49,19,0.00,40.00,8,4,0,0.00
2013-7-22,95,71,55,48,46,43,74,47,17,0.00,40.00,8,5,0,0.00
2013-7-23,90,77,58,55,50,47,68,43,25,0.00,40.00,5,3,0,0.00
2013-7-24,92,79,68,57,54,51,68,46,26,0.00,40.00,7,4,0,0.00
2013-7-25,99,80,66,59,54,49,75,47,19,0.00,40.00,14,6,0,0.00
2013-7-26,96,78,62,55,49,34,71,42,15,0.00,40.00,16,6,0,0.00
2013-7-27,91,73,57,49,44,36,70,40,18,0.00,40.00,16,6,0,0.00
2013-7-28,87,70,51,45,43,39,78,43,19,0.00,40.00,15,5,0,0.00
2013-7-29,84,65,52,47,45,42,80,53,24,0.00,40.00,9,4,0,0.00
2013-7-30,85,72,56,53,49,45,70,47,26,0.00,40.00,12,5,0,0.00
2013-7-31,81,69,62,56,55,50,78,62,34,0.00,40.00,10,4,0,0.00
2013-8-1,71,63,55,53,51,48,83,65,50,0.00,40.00,12,6,0,0.00
2013-8-2,81,58,45,51,47,43,94,71,31,0.00,40.00,12,4,0,0.00
2013-8-3,88,67,50,53,49,43,90,60,21,0.00,40.00,10,4,0,0.00
2013-8-4,92,72,52,53,49,44,87,52,20,0.00,40.00,7,4,0,0.00
2013-8-5,91,73,56,55,52,48,84,53,23,0.00,40.00,7,4,0,0.00
2013-8-6,93,72,57,56,54,48,85,58,22,0.00,40.00,7,4,0,0.00
2013-8-7,83,70,61,62,57,54,87,65,38,0.00,40.00,14,5,0,0.00
2013-8-8,78,63,52,58,54,51,96,76,45,0.00,40.00,9,3,0,0.00
2013-8-9,79,66,54,63,55,51,90,69,45,0.00,40.00,9,4,0,0.00
2013-8-10,79,64,58,57,54,50,90,72,37,0.00,40.00,9,4,0,0.00
2013-8-11,82,65,51,55,53,50,97,70,36,0.00,40.00,9,4,0,0.00